createdAt,value
2022-12-01T00:01:37.294Z,10
2022-12-01T00:03:20.990Z,10
2022-12-01T00:05:04.731Z,10
2022-12-01T00:06:48.483Z,10
2022-12-01T00:08:32.103Z,2
2022-12-01T00:10:15.805Z,2
2022-12-01T00:11:59.514Z,2
2022-12-01T00:13:43.209Z,1
2022-12-01T00:15:26.922Z,1
2022-12-01T00:17:10.619Z,2
2022-12-01T00:18:54.317Z,1
2022-12-01T00:20:38.022Z,1
2022-12-01T00:22:21.718Z,1
2022-12-01T00:24:05.426Z,1
2022-12-01T00:25:49.133Z,1
2022-12-01T00:27:32.867Z,1
2022-12-01T00:29:16.547Z,2
2022-12-01T00:31:00.240Z,1
2022-12-01T00:32:43.945Z,1
2022-12-01T00:34:27.662Z,0
2022-12-01T00:36:11.338Z,1
2022-12-01T00:37:55.055Z,2
2022-12-01T00:39:38.747Z,1
2022-12-01T00:41:22.453Z,9
2022-12-01T00:43:06.155Z,10
2022-12-01T00:44:49.856Z,10
2022-12-01T00:46:33.561Z,1
2022-12-01T00:48:17.268Z,1
2022-12-01T00:50:01.045Z,1
2022-12-01T00:51:44.668Z,1
2022-12-01T00:53:28.381Z,1
2022-12-01T00:55:12.070Z,1
2022-12-01T00:56:55.777Z,1
2022-12-01T00:58:39.494Z,1
2022-12-01T01:00:23.176Z,1
2022-12-01T01:02:06.893Z,1
2022-12-01T01:03:50.705Z,1
2022-12-01T01:05:34.297Z,1
2022-12-01T01:07:18.095Z,1
2022-12-01T01:09:01.750Z,1
2022-12-01T01:10:45.465Z,1
2022-12-01T01:12:29.128Z,2
2022-12-01T01:15:56.504Z,1
2022-12-01T01:17:40.199Z,1
2022-12-01T01:19:23.911Z,1
2022-12-01T01:21:07.627Z,2
2022-12-01T01:22:51.305Z,1
2022-12-01T01:24:35.019Z,2
2022-12-01T01:26:18.721Z,1
2022-12-01T01:28:02.411Z,1
2022-12-01T01:29:46.125Z,1
2022-12-01T01:31:29.826Z,1
2022-12-01T01:33:13.537Z,1
2022-12-01T01:34:57.225Z,1
2022-12-01T01:36:40.978Z,1
2022-12-01T01:38:24.662Z,0
2022-12-01T01:40:08.340Z,1
2022-12-01T01:41:52.028Z,1
2022-12-01T01:43:35.740Z,1
2022-12-01T01:45:19.485Z,1
2022-12-01T01:47:03.157Z,1
2022-12-01T01:48:46.842Z,1
2022-12-01T01:50:30.541Z,1
2022-12-01T01:52:14.245Z,1
2022-12-01T01:53:57.966Z,1
2022-12-01T01:55:41.640Z,2
2022-12-01T01:57:25.346Z,1
2022-12-01T01:59:09.057Z,1
2022-12-01T02:00:52.793Z,0
2022-12-01T02:02:36.450Z,1
2022-12-01T02:04:20.287Z,1
2022-12-01T02:06:03.855Z,2
2022-12-01T02:07:47.572Z,1
2022-12-01T02:09:31.266Z,1
2022-12-01T02:11:14.998Z,1
2022-12-01T02:12:58.679Z,2
2022-12-01T02:14:42.373Z,2
2022-12-01T02:16:26.079Z,0
2022-12-01T02:18:09.787Z,1
2022-12-01T02:19:53.482Z,1
2022-12-01T02:21:37.185Z,0
2022-12-01T02:23:20.893Z,1
2022-12-01T02:25:04.587Z,1
2022-12-01T02:26:48.315Z,1
2022-12-01T02:28:32.001Z,1
2022-12-01T02:30:15.722Z,1
2022-12-01T02:31:59.405Z,1
2022-12-01T02:33:43.103Z,1
2022-12-01T02:35:26.813Z,1
2022-12-01T02:37:10.533Z,1
2022-12-01T02:38:54.215Z,1
2022-12-01T02:40:37.918Z,1
2022-12-01T02:42:21.621Z,0
2022-12-01T02:44:05.321Z,2
2022-12-01T02:45:49.030Z,1
2022-12-01T02:47:32.748Z,2
2022-12-01T02:49:16.433Z,1
2022-12-01T02:51:00.136Z,1
2022-12-01T02:52:43.837Z,1
2022-12-01T02:54:27.542Z,1
2022-12-01T02:56:11.335Z,1
2022-12-01T02:57:54.942Z,1
2022-12-01T02:59:38.642Z,0
2022-12-01T03:01:22.358Z,1
2022-12-01T03:03:06.062Z,1
2022-12-01T03:04:49.811Z,0
2022-12-01T03:06:33.474Z,1
2022-12-01T03:08:17.162Z,1
2022-12-01T03:10:00.880Z,1
2022-12-01T03:11:44.572Z,1
2022-12-01T03:13:28.273Z,1
2022-12-01T03:15:11.974Z,0
2022-12-01T03:16:55.671Z,1
2022-12-01T03:18:39.375Z,1
2022-12-01T03:20:23.080Z,1
2022-12-01T03:22:06.779Z,1
2022-12-01T03:23:50.491Z,1
2022-12-01T03:25:34.187Z,1
2022-12-01T03:27:17.930Z,1
2022-12-01T03:29:01.598Z,1
2022-12-01T03:30:45.369Z,2
2022-12-01T03:32:28.998Z,1
2022-12-01T03:34:12.703Z,1
2022-12-01T03:35:56.402Z,1
2022-12-01T03:37:40.101Z,1
2022-12-01T03:39:23.866Z,1
2022-12-01T03:41:07.547Z,1
2022-12-01T03:42:51.233Z,1
2022-12-01T03:44:34.911Z,1
2022-12-01T03:46:18.618Z,2
2022-12-01T03:48:02.342Z,1
2022-12-01T03:49:46.021Z,1
2022-12-01T03:51:29.787Z,2
2022-12-01T03:53:13.435Z,1
2022-12-01T03:54:57.127Z,1
2022-12-01T03:56:40.848Z,1
2022-12-01T03:58:24.628Z,1
2022-12-01T04:00:08.250Z,0
2022-12-01T04:01:51.967Z,1
2022-12-01T04:03:35.656Z,1
2022-12-01T04:05:19.365Z,0
2022-12-01T04:07:03.056Z,1
2022-12-01T04:08:46.741Z,1
2022-12-01T04:10:30.454Z,1
2022-12-01T04:12:14.158Z,1
2022-12-01T04:13:57.863Z,1
2022-12-01T04:15:41.561Z,1
2022-12-01T04:17:25.263Z,1
2022-12-01T04:19:08.970Z,1
2022-12-01T04:20:52.675Z,1
2022-12-01T04:22:36.370Z,1
2022-12-01T04:24:20.081Z,1
2022-12-01T04:26:03.781Z,1
2022-12-01T04:27:47.478Z,0
2022-12-01T04:29:31.182Z,1
2022-12-01T04:31:14.891Z,2
2022-12-01T04:32:58.690Z,1
2022-12-01T04:34:42.290Z,2
2022-12-01T04:36:25.994Z,1
2022-12-01T04:38:09.697Z,1
2022-12-01T04:39:53.403Z,1
2022-12-01T04:41:37.105Z,1
2022-12-01T04:43:20.814Z,1
2022-12-01T04:45:04.516Z,2
2022-12-01T04:46:48.215Z,1
2022-12-01T04:48:31.929Z,1
2022-12-01T04:50:15.624Z,1
2022-12-01T04:51:59.340Z,0
2022-12-01T04:53:43.024Z,2
2022-12-01T04:55:26.721Z,1
2022-12-01T04:57:10.423Z,1
2022-12-01T04:58:54.130Z,1
2022-12-01T05:00:37.823Z,1
2022-12-01T05:02:21.537Z,1
2022-12-01T05:04:05.240Z,1
2022-12-01T05:05:49.030Z,1
2022-12-01T05:07:32.636Z,1
2022-12-01T05:09:16.348Z,1
2022-12-01T05:11:00.071Z,1
2022-12-01T05:12:43.798Z,1
2022-12-01T05:14:27.452Z,1
2022-12-01T05:16:11.159Z,1
2022-12-01T05:17:54.862Z,1
2022-12-01T05:19:38.555Z,1
2022-12-01T05:21:22.351Z,1
2022-12-01T05:23:05.976Z,2
2022-12-01T05:24:49.775Z,1
2022-12-01T05:26:33.380Z,1
2022-12-01T05:28:17.103Z,1
2022-12-01T05:30:00.777Z,1
2022-12-01T05:31:44.490Z,1
2022-12-01T05:33:28.210Z,1
2022-12-01T05:35:11.969Z,1
2022-12-01T05:36:55.595Z,1
2022-12-01T05:38:39.334Z,1
2022-12-01T05:40:23.101Z,1
2022-12-01T05:42:06.752Z,0
2022-12-01T05:43:50.390Z,0
2022-12-01T05:45:34.107Z,1
2022-12-01T05:47:17.801Z,1
2022-12-01T05:49:01.534Z,1
2022-12-01T05:50:45.212Z,1
2022-12-01T05:52:28.908Z,1
2022-12-01T05:54:12.614Z,1
2022-12-01T05:55:56.321Z,1
2022-12-01T05:57:40.107Z,1
2022-12-01T05:59:23.751Z,1
2022-12-01T06:01:07.411Z,1
2022-12-01T06:02:51.136Z,1
2022-12-01T06:04:34.835Z,1
2022-12-01T06:06:18.625Z,1
2022-12-01T06:08:02.234Z,1
2022-12-01T06:09:45.984Z,1
2022-12-01T06:11:29.667Z,1
2022-12-01T06:13:13.392Z,1
2022-12-01T06:14:57.066Z,1
2022-12-01T06:16:40.758Z,1
2022-12-01T06:18:24.454Z,1
2022-12-01T06:20:08.162Z,1
2022-12-01T06:21:51.859Z,2
2022-12-01T06:23:35.613Z,2
2022-12-01T06:25:19.267Z,0
2022-12-01T06:27:02.969Z,1
2022-12-01T06:28:46.699Z,2
2022-12-01T06:30:30.374Z,1
2022-12-01T06:32:14.082Z,1
2022-12-01T06:33:57.779Z,1
2022-12-01T06:35:41.484Z,1
2022-12-01T06:37:25.194Z,2
2022-12-01T06:39:08.887Z,2
2022-12-01T06:40:52.591Z,2
2022-12-01T06:42:36.385Z,2
2022-12-01T06:44:19.990Z,2
2022-12-01T06:46:03.697Z,3
2022-12-01T06:47:47.471Z,4
2022-12-01T06:49:31.134Z,3
2022-12-01T06:51:14.811Z,4
2022-12-01T06:52:58.505Z,5
2022-12-01T06:54:42.217Z,5
2022-12-01T06:56:25.912Z,5
2022-12-01T06:58:09.612Z,5
2022-12-01T06:59:53.345Z,6
2022-12-01T07:01:37.091Z,7
2022-12-01T07:03:20.714Z,7
2022-12-01T07:05:04.461Z,8
2022-12-01T07:06:48.156Z,9
2022-12-01T07:08:31.823Z,9
2022-12-01T07:10:15.530Z,10
2022-12-01T07:11:59.224Z,10
2022-12-01T07:13:43.035Z,11
2022-12-01T07:15:26.681Z,14
2022-12-01T07:17:10.418Z,17
2022-12-01T07:18:54.146Z,18
2022-12-01T07:20:37.760Z,19
2022-12-01T07:22:21.576Z,22
2022-12-01T07:24:05.139Z,23
2022-12-01T07:25:48.934Z,24
2022-12-01T07:27:32.569Z,27
2022-12-01T07:29:16.349Z,28
2022-12-01T07:30:59.946Z,27
2022-12-01T07:32:43.651Z,29
2022-12-01T07:34:27.454Z,32
2022-12-01T07:36:11.115Z,31
2022-12-01T07:37:54.826Z,34
2022-12-01T07:39:38.475Z,39
2022-12-01T07:41:22.286Z,42
2022-12-01T07:43:05.864Z,46
2022-12-01T07:44:49.567Z,46
2022-12-01T07:46:33.330Z,48
2022-12-01T07:48:16.991Z,50
2022-12-01T07:50:00.767Z,54
2022-12-01T07:51:44.576Z,57
2022-12-01T07:53:28.175Z,61
2022-12-01T07:55:11.830Z,63
2022-12-01T07:56:55.480Z,64
2022-12-01T07:58:39.196Z,66
2022-12-01T08:00:22.915Z,67
2022-12-01T08:02:06.705Z,69
2022-12-01T08:03:50.405Z,70
2022-12-01T08:05:34.136Z,74
2022-12-01T08:07:17.724Z,77
2022-12-01T08:09:01.416Z,77
2022-12-01T08:10:45.171Z,76
2022-12-01T08:12:28.810Z,77
2022-12-01T08:14:12.655Z,77
2022-12-01T08:15:56.207Z,81
2022-12-01T08:17:39.945Z,83
2022-12-01T08:19:23.636Z,88
2022-12-01T08:21:07.381Z,91
2022-12-01T08:22:51.151Z,95
2022-12-01T08:24:34.821Z,99
2022-12-01T08:26:18.441Z,98
2022-12-01T08:28:02.149Z,94
2022-12-01T08:29:45.937Z,92
2022-12-01T08:31:29.612Z,89
2022-12-01T08:33:13.235Z,91
2022-12-01T08:34:56.997Z,86
2022-12-01T08:36:40.648Z,88
2022-12-01T08:38:24.344Z,91
2022-12-01T08:40:08.103Z,95
2022-12-01T08:41:51.801Z,96
2022-12-01T08:43:35.575Z,106
2022-12-01T08:45:19.158Z,121
2022-12-01T08:47:02.924Z,136
2022-12-01T08:48:46.689Z,127
2022-12-01T08:50:30.292Z,128
2022-12-01T08:52:13.966Z,139
2022-12-01T08:53:57.699Z,146
2022-12-01T08:55:41.378Z,142
2022-12-01T08:57:25.080Z,135
2022-12-01T08:59:08.870Z,126
2022-12-01T09:00:52.623Z,111
2022-12-01T09:02:36.256Z,99
2022-12-01T09:04:20.003Z,87
2022-12-01T09:06:03.608Z,78
2022-12-01T09:07:47.301Z,73
2022-12-01T09:09:31.025Z,72
2022-12-01T09:11:14.703Z,75
2022-12-01T09:12:58.451Z,78
2022-12-01T09:14:42.112Z,82
2022-12-01T09:16:25.808Z,93
2022-12-01T09:18:09.516Z,101
2022-12-01T09:19:53.218Z,108
2022-12-01T09:21:36.986Z,117
2022-12-01T09:23:20.639Z,144
2022-12-01T09:25:04.380Z,181
2022-12-01T09:26:48.110Z,205
2022-12-01T09:28:31.771Z,184
2022-12-01T09:30:15.428Z,174
2022-12-01T09:31:59.132Z,158
2022-12-01T09:33:42.838Z,137
2022-12-01T09:35:26.535Z,115
2022-12-01T09:37:10.276Z,104
2022-12-01T09:38:53.936Z,98
2022-12-01T09:40:37.660Z,98
2022-12-01T09:42:21.352Z,105
2022-12-01T09:44:05.047Z,115
2022-12-01T09:45:48.750Z,126
2022-12-01T09:47:32.468Z,146
2022-12-01T09:49:16.297Z,166
2022-12-01T09:50:59.861Z,163
2022-12-01T09:52:43.605Z,162
2022-12-01T09:54:27.263Z,184
2022-12-01T09:56:10.980Z,215
2022-12-01T09:57:54.667Z,210
2022-12-01T09:59:38.375Z,193
2022-12-01T10:01:22.079Z,187
2022-12-01T10:03:05.778Z,192
2022-12-01T10:04:49.690Z,202
2022-12-01T10:06:33.187Z,214
2022-12-01T10:08:16.913Z,217
2022-12-01T10:10:00.594Z,225
2022-12-01T10:11:44.292Z,219
2022-12-01T10:13:28.013Z,199
2022-12-01T10:15:11.741Z,191
2022-12-01T10:16:55.402Z,212
2022-12-01T10:18:39.118Z,220
2022-12-01T10:20:22.897Z,207
2022-12-01T10:22:06.576Z,202
2022-12-01T10:23:50.305Z,209
2022-12-01T10:25:33.961Z,223
2022-12-01T10:27:17.613Z,232
2022-12-01T10:29:01.367Z,245
2022-12-01T10:30:45.040Z,248
2022-12-01T10:32:28.773Z,240
2022-12-01T10:34:12.431Z,243
2022-12-01T10:35:56.228Z,278
2022-12-01T10:37:39.997Z,299
2022-12-01T10:39:23.688Z,297
2022-12-01T10:41:07.391Z,312
2022-12-01T10:42:51.140Z,341
2022-12-01T10:44:34.763Z,348
2022-12-01T10:46:18.515Z,326
2022-12-01T10:48:02.242Z,284
2022-12-01T10:49:45.758Z,261
2022-12-01T10:51:29.646Z,228
2022-12-01T10:53:13.209Z,217
2022-12-01T10:54:56.920Z,222
2022-12-01T10:56:40.686Z,253
2022-12-01T10:58:24.367Z,278
2022-12-01T11:00:08.082Z,272
2022-12-01T11:01:51.671Z,264
2022-12-01T11:03:35.537Z,266
2022-12-01T11:05:19.215Z,283
2022-12-01T11:07:02.883Z,311
2022-12-01T11:08:46.631Z,299
2022-12-01T11:10:30.254Z,290
2022-12-01T11:12:14.050Z,297
2022-12-01T11:13:57.643Z,303
2022-12-01T11:15:41.330Z,304
2022-12-01T11:19:08.865Z,294
2022-12-01T11:20:52.546Z,314
2022-12-01T11:22:36.109Z,339
2022-12-01T11:24:19.874Z,356
2022-12-01T11:26:03.697Z,341
2022-12-01T11:27:47.384Z,299
2022-12-01T11:29:31.057Z,267
2022-12-01T11:31:14.743Z,263
2022-12-01T11:32:58.615Z,280
2022-12-01T11:34:42.167Z,315
2022-12-01T11:36:25.911Z,321
2022-12-01T11:38:09.603Z,319
2022-12-01T11:39:53.292Z,331
2022-12-01T11:41:37.028Z,341
2022-12-01T11:43:20.706Z,356
2022-12-01T11:45:04.444Z,351
2022-12-01T11:46:48.111Z,339
2022-12-01T11:48:31.650Z,319
2022-12-01T11:50:15.529Z,313
2022-12-01T11:51:59.219Z,325
2022-12-01T11:53:42.749Z,324
2022-12-01T11:55:26.633Z,363
2022-12-01T11:57:10.239Z,354
2022-12-01T11:58:54.022Z,330
2022-12-01T12:00:37.560Z,321
2022-12-01T12:02:21.452Z,337
2022-12-01T12:04:05.177Z,327
2022-12-01T12:05:48.886Z,314
2022-12-01T12:07:32.584Z,318
2022-12-01T12:09:16.322Z,322
2022-12-01T12:11:00.048Z,324
2022-12-01T12:12:43.690Z,326
2022-12-01T12:14:27.349Z,326
2022-12-01T12:16:10.993Z,330
2022-12-01T12:17:54.851Z,333
2022-12-01T12:19:38.490Z,335
2022-12-01T12:21:21.992Z,333
2022-12-01T12:23:05.771Z,328
2022-12-01T12:24:49.569Z,329
2022-12-01T12:26:33.189Z,338
2022-12-01T12:28:16.954Z,335
2022-12-01T12:30:00.617Z,343
2022-12-01T12:31:44.357Z,354
2022-12-01T12:33:28.054Z,391
2022-12-01T12:35:11.612Z,440
2022-12-01T12:36:55.498Z,448
2022-12-01T12:38:39.080Z,428
2022-12-01T12:40:22.874Z,419
2022-12-01T12:42:06.589Z,415
2022-12-01T12:43:50.299Z,396
2022-12-01T12:45:33.823Z,390
2022-12-01T12:47:17.691Z,397
2022-12-01T12:49:01.391Z,398
2022-12-01T12:50:45.074Z,385
2022-12-01T12:52:28.679Z,349
2022-12-01T12:54:12.512Z,319
2022-12-01T12:55:56.087Z,303
2022-12-01T12:57:39.916Z,300
2022-12-01T12:59:23.495Z,288
2022-12-01T13:01:07.332Z,269
2022-12-01T13:02:50.991Z,255
2022-12-01T13:04:34.638Z,252
2022-12-01T13:06:18.321Z,253
2022-12-01T13:08:02.007Z,259
2022-12-01T13:09:45.686Z,263
2022-12-01T13:11:29.522Z,262
2022-12-01T13:13:13.127Z,264
2022-12-01T13:14:56.917Z,271
2022-12-01T13:16:40.526Z,277
2022-12-01T13:18:24.268Z,281
2022-12-01T13:20:07.983Z,285
2022-12-01T13:21:51.582Z,286
2022-12-01T13:23:35.282Z,281
2022-12-01T13:25:18.988Z,281
2022-12-01T13:27:02.736Z,269
2022-12-01T13:28:46.393Z,254
2022-12-01T13:30:30.185Z,258
2022-12-01T13:32:13.953Z,261
2022-12-01T13:33:57.605Z,250
2022-12-01T13:35:41.281Z,242
2022-12-01T13:37:24.905Z,229
2022-12-01T13:39:08.644Z,214
2022-12-01T13:40:52.478Z,200
2022-12-01T13:42:36.069Z,190
2022-12-01T13:44:19.835Z,189
2022-12-01T13:46:03.646Z,198
2022-12-01T13:47:47.299Z,211
2022-12-01T13:49:30.828Z,222
2022-12-01T13:51:14.655Z,230
2022-12-01T13:52:58.457Z,228
2022-12-01T13:54:42.085Z,226
2022-12-01T13:56:25.808Z,222
2022-12-01T13:58:09.427Z,211
2022-12-01T13:59:53.205Z,195
2022-12-01T14:01:36.926Z,176
2022-12-01T14:03:20.533Z,162
2022-12-01T14:05:04.215Z,151
2022-12-01T14:06:48.061Z,142
2022-12-01T14:08:31.573Z,136
2022-12-01T14:10:15.252Z,131
2022-12-01T14:11:58.995Z,127
2022-12-01T14:13:42.764Z,134
2022-12-01T14:15:26.352Z,144
2022-12-01T14:17:10.069Z,136
2022-12-01T14:18:53.768Z,118
2022-12-01T14:20:37.458Z,109
2022-12-01T14:22:21.158Z,107
2022-12-01T14:24:04.873Z,102
2022-12-01T14:25:48.571Z,95
2022-12-01T14:27:32.278Z,87
2022-12-01T14:29:16.009Z,82
2022-12-01T14:30:59.679Z,78
2022-12-01T14:32:43.389Z,78
2022-12-01T14:34:27.078Z,72
2022-12-01T14:36:10.789Z,66
2022-12-01T14:37:54.615Z,61
2022-12-01T14:39:38.184Z,60
2022-12-01T14:41:21.890Z,56
2022-12-01T14:43:05.597Z,52
2022-12-01T14:44:49.305Z,50
2022-12-01T14:46:33.005Z,48
2022-12-01T14:48:16.722Z,44
2022-12-01T14:50:00.427Z,44
2022-12-01T14:53:27.808Z,45
2022-12-01T14:55:11.514Z,46
2022-12-01T14:56:55.241Z,45
2022-12-01T14:58:38.914Z,45
2022-12-01T15:00:22.616Z,44
2022-12-01T15:02:06.326Z,40
2022-12-01T15:03:50.026Z,37
2022-12-01T15:05:33.725Z,32
2022-12-01T15:07:17.435Z,30
2022-12-01T15:09:01.141Z,26
2022-12-01T15:10:44.837Z,24
2022-12-01T15:12:28.546Z,23
2022-12-01T15:14:12.262Z,21
2022-12-01T15:15:55.956Z,19
2022-12-01T15:17:39.651Z,17
2022-12-01T15:21:07.061Z,16
2022-12-01T15:22:50.766Z,17
2022-12-01T15:24:34.464Z,16
2022-12-01T15:26:18.172Z,16
2022-12-01T15:28:01.870Z,17
2022-12-01T15:29:45.564Z,27
2022-12-01T15:31:29.271Z,33
2022-12-01T15:33:13.001Z,32
2022-12-01T15:34:56.699Z,31
2022-12-01T15:36:40.385Z,30
2022-12-01T15:38:24.088Z,29
2022-12-01T15:40:07.790Z,30
2022-12-01T15:41:51.491Z,28
2022-12-01T15:43:35.189Z,28
2022-12-01T15:45:18.895Z,28
2022-12-01T15:47:02.591Z,27
2022-12-01T15:48:46.295Z,26
2022-12-01T15:50:30.004Z,26
2022-12-01T15:52:13.697Z,26
2022-12-01T15:53:57.404Z,25
2022-12-01T15:55:41.110Z,25
2022-12-01T15:57:24.853Z,25
2022-12-01T15:59:08.531Z,24
2022-12-01T16:00:52.209Z,25
2022-12-01T16:02:35.949Z,25
2022-12-01T16:04:19.626Z,25
2022-12-01T16:06:03.318Z,23
2022-12-01T16:07:47.028Z,23
2022-12-01T16:09:30.736Z,23
2022-12-01T16:11:14.433Z,24
2022-12-01T16:12:58.128Z,23
2022-12-01T16:14:41.877Z,23
2022-12-01T16:16:25.544Z,24
2022-12-01T16:18:09.245Z,24
2022-12-01T16:19:52.947Z,24
2022-12-01T16:21:36.646Z,24
2022-12-01T16:23:20.353Z,24
2022-12-01T16:25:04.054Z,23
2022-12-01T16:26:47.752Z,23
2022-12-01T16:28:31.453Z,23
2022-12-01T16:30:15.151Z,23
2022-12-01T16:31:58.861Z,24
2022-12-01T16:33:42.560Z,24
2022-12-01T16:35:26.257Z,24
2022-12-01T16:37:09.983Z,24
2022-12-01T16:38:53.663Z,23
2022-12-01T16:40:37.378Z,24
2022-12-01T16:42:21.080Z,24
2022-12-01T16:44:04.789Z,24
2022-12-01T16:45:48.511Z,23
2022-12-01T16:47:32.183Z,23
2022-12-01T16:49:15.877Z,24
2022-12-01T16:50:59.587Z,23
2022-12-01T16:52:43.320Z,23
2022-12-01T16:54:26.988Z,23
2022-12-01T16:56:10.708Z,23
2022-12-01T16:57:54.393Z,24
2022-12-01T16:59:38.151Z,24
2022-12-01T17:01:21.798Z,23
2022-12-01T17:03:05.571Z,23
2022-12-01T17:04:49.240Z,24
2022-12-01T17:06:32.910Z,24
2022-12-01T17:08:16.610Z,24
2022-12-01T17:10:00.301Z,10
2022-12-01T17:11:44.012Z,3
2022-12-01T17:13:27.713Z,2
2022-12-01T17:15:11.411Z,3
2022-12-01T17:16:55.114Z,2
2022-12-01T17:18:38.823Z,3
2022-12-01T17:20:22.589Z,2
2022-12-01T17:22:06.241Z,3
2022-12-01T17:23:49.928Z,3
2022-12-01T17:25:33.631Z,3
2022-12-01T17:27:17.346Z,2
2022-12-01T17:29:01.042Z,3
2022-12-01T17:30:44.740Z,2
2022-12-01T17:32:28.472Z,3
2022-12-01T17:34:12.147Z,2
2022-12-01T17:35:55.844Z,2
2022-12-01T17:37:39.555Z,3
2022-12-01T17:39:23.252Z,2
2022-12-01T17:41:06.948Z,2
2022-12-01T17:42:50.657Z,2
2022-12-01T17:44:34.395Z,2
2022-12-01T17:46:18.065Z,2
2022-12-01T17:48:01.767Z,3
2022-12-01T17:49:45.476Z,2
2022-12-01T17:51:29.174Z,3
2022-12-01T17:53:12.878Z,2
2022-12-01T17:54:56.573Z,2
2022-12-01T17:56:40.290Z,2
2022-12-01T17:58:23.995Z,2
2022-12-01T18:00:07.683Z,2
2022-12-01T18:01:51.394Z,3
2022-12-01T18:03:35.092Z,3
2022-12-01T18:05:18.818Z,3
2022-12-01T18:07:02.490Z,2
2022-12-01T18:08:46.199Z,3
2022-12-01T18:10:29.909Z,2
2022-12-01T18:12:13.615Z,2
2022-12-01T18:13:57.320Z,2
2022-12-01T18:15:41.016Z,11
2022-12-01T18:17:24.723Z,11
2022-12-01T18:19:08.419Z,11
2022-12-01T18:20:52.134Z,11
2022-12-01T18:22:35.829Z,12
2022-12-01T18:24:19.562Z,11
2022-12-01T18:26:03.231Z,11
2022-12-01T18:27:46.937Z,11
2022-12-01T18:29:30.639Z,11
2022-12-01T18:31:14.341Z,11
2022-12-01T18:32:58.049Z,11
2022-12-01T18:34:41.754Z,11
2022-12-01T18:36:25.449Z,11
2022-12-01T18:38:09.158Z,11
2022-12-01T18:39:52.851Z,10
2022-12-01T18:41:36.555Z,10
2022-12-01T18:43:20.299Z,11
2022-12-01T18:45:03.969Z,11
2022-12-01T18:46:47.655Z,2
2022-12-01T18:48:31.364Z,10
2022-12-01T18:50:15.078Z,2
2022-12-01T18:51:58.763Z,2
2022-12-01T18:53:42.474Z,3
2022-12-01T18:55:26.208Z,2
2022-12-01T18:57:09.898Z,2
2022-12-01T18:58:53.591Z,3
2022-12-01T19:00:37.277Z,2
2022-12-01T19:02:21.024Z,3
2022-12-01T19:04:04.697Z,3
2022-12-01T19:05:48.402Z,11
2022-12-01T19:07:32.148Z,11
2022-12-01T19:09:15.796Z,11
2022-12-01T19:10:59.492Z,11
2022-12-01T19:12:43.294Z,11
2022-12-01T19:14:26.904Z,11
2022-12-01T19:16:10.605Z,22
2022-12-01T19:17:54.307Z,22
2022-12-01T19:19:38.046Z,22
2022-12-01T19:21:21.816Z,22
2022-12-01T19:23:05.415Z,22
2022-12-01T19:24:49.164Z,22
2022-12-01T19:26:32.854Z,22
2022-12-01T19:28:16.524Z,21
2022-12-01T19:30:00.228Z,22
2022-12-01T19:31:43.947Z,22
2022-12-01T19:33:27.691Z,22
2022-12-01T19:35:11.343Z,21
2022-12-01T19:36:55.050Z,21
2022-12-01T19:38:38.739Z,22
2022-12-01T19:40:22.469Z,22
2022-12-01T19:42:06.153Z,21
2022-12-01T19:43:49.880Z,22
2022-12-01T19:45:33.554Z,22
2022-12-01T19:47:17.300Z,22
2022-12-01T19:49:00.955Z,21
2022-12-01T19:50:44.665Z,21
2022-12-01T19:52:28.423Z,22
2022-12-01T19:54:12.103Z,21
2022-12-01T19:55:55.763Z,21
2022-12-01T19:57:39.475Z,22
2022-12-01T19:59:23.213Z,21
2022-12-01T20:01:06.871Z,22
2022-12-01T20:02:50.658Z,21
2022-12-01T20:04:34.317Z,2
2022-12-01T20:06:17.980Z,2
2022-12-01T20:08:01.859Z,2
2022-12-01T20:09:45.399Z,3
2022-12-01T20:11:29.120Z,3
2022-12-01T20:13:12.834Z,2
2022-12-01T20:14:56.608Z,3
2022-12-01T20:16:40.209Z,2
2022-12-01T20:18:23.905Z,3
2022-12-01T20:20:07.609Z,2
2022-12-01T20:21:51.423Z,2
2022-12-01T20:23:35.007Z,1
2022-12-01T20:25:18.714Z,2
2022-12-01T20:27:02.420Z,2
2022-12-01T20:30:29.824Z,2
2022-12-01T20:32:13.524Z,2
2022-12-01T20:33:57.240Z,3
2022-12-01T20:35:41.009Z,2
2022-12-01T20:37:24.643Z,2
2022-12-01T20:39:08.334Z,2
2022-12-01T20:40:52.047Z,2
2022-12-01T20:42:35.799Z,2
2022-12-01T20:44:19.445Z,2
2022-12-01T20:46:03.165Z,2
2022-12-01T20:47:46.847Z,2
2022-12-01T20:49:30.550Z,3
2022-12-01T20:51:14.321Z,2
2022-12-01T20:52:57.953Z,3
2022-12-01T20:54:41.659Z,2
2022-12-01T20:56:25.361Z,2
2022-12-01T20:58:09.110Z,2
2022-12-01T20:59:52.774Z,3
2022-12-01T21:01:36.468Z,3
2022-12-01T21:03:20.229Z,2
2022-12-01T21:05:03.971Z,2
2022-12-01T21:06:47.578Z,2
2022-12-01T21:08:31.323Z,11
2022-12-01T21:10:14.984Z,10
2022-12-01T21:11:58.685Z,11
2022-12-01T21:13:42.459Z,10
2022-12-01T21:15:26.120Z,11
2022-12-01T21:17:09.788Z,3
2022-12-01T21:18:53.501Z,2
2022-12-01T21:20:37.343Z,3
2022-12-01T21:22:20.921Z,2
2022-12-01T21:24:04.709Z,2
2022-12-01T21:25:48.298Z,2
2022-12-01T21:27:32.141Z,2
2022-12-01T21:29:15.707Z,2
2022-12-01T21:30:59.557Z,2
2022-12-01T21:32:43.121Z,3
2022-12-01T21:34:26.832Z,3
2022-12-01T21:36:10.520Z,3
2022-12-01T21:37:54.223Z,3
2022-12-01T21:39:37.981Z,2
2022-12-01T21:41:21.636Z,2
2022-12-01T21:43:05.384Z,2
2022-12-01T21:46:32.741Z,3
2022-12-01T21:48:16.446Z,2
2022-12-01T21:50:00.253Z,2
2022-12-01T21:51:44.010Z,11
2022-12-01T21:53:27.679Z,11
2022-12-01T21:55:11.377Z,11
2022-12-01T21:56:54.943Z,2
2022-12-01T21:58:38.805Z,2
2022-12-01T22:00:22.386Z,2
2022-12-01T22:02:06.079Z,2
2022-12-01T22:03:49.767Z,3
2022-12-01T22:05:33.465Z,2
2022-12-01T22:07:17.165Z,2
2022-12-01T22:09:00.932Z,2
2022-12-01T22:10:44.564Z,2
2022-12-01T22:12:28.288Z,3
2022-12-01T22:14:11.988Z,2
2022-12-01T22:15:55.675Z,2
2022-12-01T22:17:39.428Z,2
2022-12-01T22:19:23.290Z,2
2022-12-01T22:21:06.852Z,2
2022-12-01T22:22:50.530Z,2
2022-12-01T22:24:34.244Z,2
2022-12-01T22:26:17.895Z,2
2022-12-01T22:28:01.709Z,2
2022-12-01T22:29:45.307Z,2
2022-12-01T22:31:29.072Z,2
2022-12-01T22:33:12.771Z,3
2022-12-01T22:34:56.443Z,2
2022-12-01T22:36:40.289Z,2
2022-12-01T22:38:23.826Z,2
2022-12-01T22:40:07.517Z,2
2022-12-01T22:41:51.254Z,2
2022-12-01T22:43:34.995Z,2
2022-12-01T22:45:18.631Z,2
2022-12-01T22:47:02.338Z,3
2022-12-01T22:48:46.022Z,0
2022-12-01T22:50:29.734Z,2
2022-12-01T22:52:13.436Z,2
2022-12-01T22:53:57.139Z,2
2022-12-01T22:55:40.847Z,2
2022-12-01T22:57:24.544Z,11
2022-12-01T22:59:08.249Z,11
2022-12-01T23:00:51.957Z,10
2022-12-01T23:02:35.667Z,10
2022-12-01T23:04:19.463Z,2
2022-12-01T23:06:03.059Z,2
2022-12-01T23:07:46.769Z,2
2022-12-01T23:09:30.473Z,3
2022-12-01T23:11:14.172Z,2
2022-12-01T23:12:57.887Z,2
2022-12-01T23:14:41.597Z,2
2022-12-01T23:16:25.275Z,2
2022-12-01T23:18:08.974Z,2
2022-12-01T23:19:52.712Z,2
2022-12-01T23:23:20.133Z,2
2022-12-01T23:25:03.797Z,2
2022-12-01T23:26:47.555Z,3
2022-12-01T23:30:14.897Z,1
2022-12-01T23:31:58.621Z,10
2022-12-01T23:33:42.359Z,10
2022-12-01T23:35:26.024Z,11
2022-12-01T23:37:09.747Z,2
2022-12-01T23:38:53.413Z,2
2022-12-01T23:40:37.118Z,2
2022-12-01T23:42:20.840Z,2
2022-12-01T23:44:04.524Z,3
2022-12-01T23:45:48.224Z,2
2022-12-01T23:47:32.053Z,2
2022-12-01T23:49:15.642Z,2
2022-12-01T23:50:59.335Z,2
2022-12-01T23:52:43.037Z,0
2022-12-01T23:54:26.744Z,2
2022-12-01T23:56:10.448Z,2
2022-12-01T23:57:54.193Z,2
2022-12-01T23:59:37.842Z,1
